Mansfield Depot, Connecticut
Current Conditions -  °F | °C
As of 3:52 AM on Saturday 20 Dec 2014 (Local Time) from KIJD Reporting Station
Clear Clear  
Wind Chill: 24°   Ceiling: Unl
Heat Index: 24°   Visibility: 10mi
Dew Point: 19°   Wind: 0mph
Humidity: 81%   Direction: NA
Pressure: 30.19"   Gusts: NA
Location:  41.8°N, 72.31°W
Report Text: KIJD 200852Z AUTO 00000KT 10SM CLR M04/M07 A3019 RMK AO2 SLP226 T10441072 51008
Loading
Personal Weather Stations






























Interactive Weather Map New forecast layout! Learn more

10-Day Weather Forecast

Advertisements
Track Severe Weather on mobile